createdAt,value
2017-03-11T00:00:25.681Z,948.9
2017-03-11T00:01:33.260Z,948.9
2017-03-11T00:02:41.346Z,948.9
2017-03-11T00:03:49.498Z,948.9
2017-03-11T00:04:57.590Z,948.9
2017-03-11T00:06:05.619Z,948.9
2017-03-11T00:07:13.711Z,948.9
2017-03-11T00:08:21.861Z,948.9
2017-03-11T00:09:29.884Z,948.8
2017-03-11T00:10:38.478Z,948.9
2017-03-11T00:11:46.060Z,948.9
2017-03-11T00:12:54.149Z,948.9
2017-03-11T00:14:02.297Z,948.9
2017-03-11T00:15:10.381Z,948.9
2017-03-11T00:16:18.537Z,948.9
2017-03-11T00:17:26.503Z,948.9
2017-03-11T00:18:34.603Z,948.9
2017-03-11T00:19:42.881Z,948.9
2017-03-11T00:20:50.782Z,948.9
2017-03-11T00:21:59.373Z,948.9
2017-03-11T00:23:06.965Z,948.9
2017-03-11T00:24:15.051Z,948.9
2017-03-11T00:25:23.187Z,948.9
2017-03-11T00:26:31.223Z,948.9
2017-03-11T00:27:39.364Z,948.9
2017-03-11T00:28:47.403Z,948.9
2017-03-11T00:29:55.487Z,948.9
2017-03-11T00:31:03.578Z,948.8
2017-03-11T00:32:12.172Z,948.8
2017-03-11T00:33:19.809Z,948.9
2017-03-11T00:34:27.843Z,948.8
2017-03-11T00:35:35.935Z,948.8
2017-03-11T00:36:44.030Z,948.8
2017-03-11T00:37:52.125Z,948.8
2017-03-11T00:39:00.249Z,948.8
2017-03-11T00:40:08.280Z,948.8
2017-03-11T00:41:16.539Z,948.8
2017-03-11T00:42:24.461Z,948.8
2017-03-11T00:43:32.549Z,948.8
2017-03-11T00:44:41.152Z,948.8
2017-03-11T00:45:48.733Z,948.8
2017-03-11T00:46:56.819Z,948.8
2017-03-11T00:48:04.963Z,948.8
2017-03-11T00:49:12.994Z,948.8
2017-03-11T00:50:21.144Z,948.8
2017-03-11T00:51:29.197Z,948.8
2017-03-11T00:52:37.263Z,948.8
2017-03-11T00:53:45.353Z,948.7
2017-03-11T00:54:53.447Z,948.7
2017-03-11T00:56:02.206Z,948.7
2017-03-11T00:57:09.762Z,948.7
2017-03-11T00:58:17.716Z,948.7
2017-03-11T00:59:25.809Z,948.7
2017-03-11T01:00:33.893Z,948.7
2017-03-11T01:01:42.036Z,948.7
2017-03-11T01:02:50.075Z,948.6
2017-03-11T01:03:58.673Z,948.6
2017-03-11T01:05:06.255Z,948.6
2017-03-11T01:06:14.344Z,948.6
2017-03-11T01:07:22.539Z,948.6
2017-03-11T01:08:30.516Z,948.5
2017-03-11T01:09:38.600Z,948.5
2017-03-11T01:10:46.692Z,948.6
2017-03-11T01:11:54.774Z,948.5
2017-03-11T01:13:02.918Z,948.6
2017-03-11T01:14:10.955Z,948.5
2017-03-11T01:15:19.045Z,948.6
2017-03-11T01:16:27.130Z,948.6
2017-03-11T01:17:35.219Z,948.5
2017-03-11T01:18:43.813Z,948.5
2017-03-11T01:19:51.453Z,948.5
2017-03-11T01:20:59.484Z,948.5
2017-03-11T01:22:07.672Z,948.5
2017-03-11T01:23:15.753Z,948.5
2017-03-11T01:24:23.801Z,948.5
2017-03-11T01:25:31.836Z,948.5
2017-03-11T01:26:40.052Z,948.4
2017-03-11T01:27:48.016Z,948.5
2017-03-11T01:28:56.104Z,948.4
2017-03-11T01:30:04.699Z,948.4
2017-03-11T01:31:12.285Z,948.4
2017-03-11T01:32:20.373Z,948.4
2017-03-11T01:33:28.559Z,948.4
2017-03-11T01:34:36.550Z,948.4
2017-03-11T01:35:44.694Z,948.4
2017-03-11T01:36:52.730Z,948.3
2017-03-11T01:38:00.823Z,948.4
2017-03-11T01:39:08.917Z,948.4
2017-03-11T01:40:17.001Z,948.4
2017-03-11T01:41:25.597Z,948.3
2017-03-11T01:42:33.179Z,948.3
2017-03-11T01:43:41.379Z,948.3
2017-03-11T01:44:49.454Z,948.3
2017-03-11T01:45:57.449Z,948.3
2017-03-11T01:47:05.593Z,948.3
2017-03-11T01:48:13.621Z,948.3
2017-03-11T01:49:21.712Z,948.2
2017-03-11T01:50:29.799Z,948.3
2017-03-11T01:51:38.391Z,948.3
2017-03-11T01:52:46.024Z,948.3
2017-03-11T01:53:54.060Z,948.3
2017-03-11T01:55:02.255Z,948.2
2017-03-11T01:56:10.237Z,948.2
2017-03-11T01:57:18.324Z,948.2
2017-03-11T01:58:26.468Z,948.2
2017-03-11T01:59:34.498Z,948.2
2017-03-11T02:00:42.618Z,948.2
2017-03-11T02:01:50.687Z,948.1
2017-03-11T02:02:58.771Z,948.1
2017-03-11T02:04:07.360Z,948.1
2017-03-11T02:05:14.949Z,948.1
2017-03-11T02:06:23.144Z,948.1
2017-03-11T02:07:31.183Z,948.0
2017-03-11T02:08:39.210Z,948.0
2017-03-11T02:09:47.358Z,948.0
2017-03-11T02:10:55.394Z,948.0
2017-03-11T02:12:03.480Z,948.0
2017-03-11T02:13:11.573Z,947.9
2017-03-11T02:14:19.665Z,947.9
2017-03-11T02:15:28.254Z,947.9
2017-03-11T02:16:35.839Z,947.9
2017-03-11T02:17:43.931Z,947.9
2017-03-11T02:18:52.016Z,947.9
2017-03-11T02:20:00.108Z,947.8
2017-03-11T02:21:08.412Z,947.8
2017-03-11T02:22:16.428Z,947.8
2017-03-11T02:23:24.879Z,947.8
2017-03-11T02:24:32.460Z,947.8
2017-03-11T02:25:40.553Z,947.8
2017-03-11T02:26:48.693Z,947.8
2017-03-11T02:27:56.725Z,947.8
2017-03-11T02:29:04.821Z,947.8
2017-03-11T02:30:12.907Z,947.7
2017-03-11T02:31:20.995Z,947.7
2017-03-11T02:32:29.251Z,947.7
2017-03-11T02:33:37.171Z,947.7
2017-03-11T02:34:45.257Z,947.7
2017-03-11T02:35:53.343Z,947.7
2017-03-11T02:37:01.436Z,947.7
2017-03-11T02:38:10.033Z,947.7
2017-03-11T02:39:17.666Z,947.7
2017-03-11T02:40:25.705Z,947.7
2017-03-11T02:41:33.800Z,947.7
2017-03-11T02:42:41.893Z,947.6
2017-03-11T02:43:50.030Z,947.6
2017-03-11T02:44:58.069Z,947.7
2017-03-11T02:46:06.156Z,947.7
2017-03-11T02:47:14.377Z,947.7
2017-03-11T02:48:22.464Z,947.7
2017-03-11T02:49:30.921Z,947.7
2017-03-11T02:50:38.504Z,947.7
2017-03-11T02:51:46.615Z,947.7
2017-03-11T02:52:54.679Z,947.7
2017-03-11T02:54:02.771Z,947.6
2017-03-11T02:55:10.914Z,947.6
2017-03-11T02:56:18.945Z,947.6
2017-03-11T02:57:27.040Z,947.6
2017-03-11T02:58:35.246Z,947.6
2017-03-11T02:59:43.209Z,947.6
2017-03-11T03:00:51.807Z,947.6
2017-03-11T03:01:59.383Z,947.6
2017-03-11T03:03:07.469Z,947.6
2017-03-11T03:04:15.565Z,947.6
2017-03-11T03:05:23.654Z,947.6
2017-03-11T03:06:31.803Z,947.5
2017-03-11T03:07:39.825Z,947.6
2017-03-11T03:08:47.917Z,947.5
2017-03-11T03:09:56.124Z,947.5
2017-03-11T03:11:04.598Z,947.5
2017-03-11T03:12:12.240Z,947.5
2017-03-11T03:13:20.278Z,947.4
2017-03-11T03:14:28.361Z,947.5
2017-03-11T03:15:36.451Z,947.5
2017-03-11T03:16:44.541Z,947.4
2017-03-11T03:17:52.688Z,947.5
2017-03-11T03:19:00.713Z,947.5
2017-03-11T03:20:08.815Z,947.5
2017-03-11T03:21:16.893Z,947.5
2017-03-11T03:22:24.976Z,947.5
2017-03-11T03:23:33.564Z,947.4
2017-03-11T03:24:41.145Z,947.4
2017-03-11T03:25:49.240Z,947.4
2017-03-11T03:26:57.386Z,947.4
2017-03-11T03:28:05.425Z,947.4
2017-03-11T03:29:13.570Z,947.4
2017-03-11T03:30:21.607Z,947.3
2017-03-11T03:31:29.716Z,947.4
2017-03-11T03:32:37.789Z,947.4
2017-03-11T03:33:45.872Z,947.4
2017-03-11T03:34:54.459Z,947.4
2017-03-11T03:36:02.180Z,947.4
2017-03-11T03:37:10.135Z,947.4
2017-03-11T03:38:18.222Z,947.4
2017-03-11T03:39:26.310Z,947.4
2017-03-11T03:40:34.456Z,947.4
2017-03-11T03:41:42.492Z,947.5
2017-03-11T03:42:51.077Z,947.4
2017-03-11T03:43:58.667Z,947.5
2017-03-11T03:45:06.754Z,947.5
2017-03-11T03:46:14.899Z,947.5
2017-03-11T03:47:22.931Z,947.5
2017-03-11T03:48:31.022Z,947.5
2017-03-11T03:49:39.101Z,947.5
2017-03-11T03:50:47.395Z,947.5
2017-03-11T03:51:55.525Z,947.5
2017-03-11T03:53:03.373Z,947.5
2017-03-11T03:54:11.451Z,947.4
2017-03-11T03:55:19.549Z,947.4
2017-03-11T03:56:27.648Z,947.4
2017-03-11T03:57:36.232Z,947.4
2017-03-11T03:58:43.865Z,947.4
2017-03-11T03:59:51.899Z,947.4
2017-03-11T04:00:59.984Z,947.3
2017-03-11T04:02:08.184Z,947.4
2017-03-11T04:03:16.214Z,947.4
2017-03-11T04:04:24.243Z,947.3
2017-03-11T04:05:32.332Z,947.3
2017-03-11T04:06:40.417Z,947.3
2017-03-11T04:07:48.506Z,947.3
2017-03-11T04:08:57.104Z,947.2
2017-03-11T04:10:04.681Z,947.2
2017-03-11T04:11:12.773Z,947.2
2017-03-11T04:12:20.911Z,947.2
2017-03-11T04:13:29.077Z,947.2
2017-03-11T04:14:37.545Z,947.2
2017-03-11T04:15:45.131Z,947.1
2017-03-11T04:16:53.217Z,947.2
2017-03-11T04:18:01.305Z,947.1
2017-03-11T04:19:09.387Z,947.1
2017-03-11T04:20:17.537Z,947.1
2017-03-11T04:21:25.574Z,947.1
2017-03-11T04:22:33.654Z,947.1
2017-03-11T04:23:41.790Z,947.1
2017-03-11T04:24:49.828Z,947.2
2017-03-11T04:25:58.417Z,947.2
2017-03-11T04:27:06.004Z,947.1
2017-03-11T04:28:14.093Z,947.2
2017-03-11T04:29:22.242Z,947.2
2017-03-11T04:30:30.314Z,947.2
2017-03-11T04:31:38.416Z,947.1
2017-03-11T04:32:46.442Z,947.1
2017-03-11T04:33:54.527Z,947.1
2017-03-11T04:35:02.759Z,947.1
2017-03-11T04:36:10.696Z,947.1
2017-03-11T04:37:19.290Z,947.0
2017-03-11T04:38:26.874Z,947.0
2017-03-11T04:39:34.970Z,947.1
2017-03-11T04:40:43.056Z,947.0
2017-03-11T04:41:51.166Z,947.0
2017-03-11T04:42:59.284Z,946.9
2017-03-11T04:44:07.314Z,947.0
2017-03-11T04:45:15.466Z,946.9
2017-03-11T04:46:23.600Z,946.9
2017-03-11T04:47:31.572Z,946.9
2017-03-11T04:48:40.164Z,946.9
2017-03-11T04:49:47.745Z,946.9
2017-03-11T04:50:56.026Z,946.9
2017-03-11T04:52:03.922Z,946.9
2017-03-11T04:53:12.003Z,946.9
2017-03-11T04:54:20.151Z,946.9
2017-03-11T04:55:28.181Z,946.9
2017-03-11T04:56:36.269Z,946.8
2017-03-11T04:57:44.349Z,946.8
2017-03-11T04:58:52.449Z,946.8
2017-03-11T05:00:01.384Z,946.8
2017-03-11T05:01:08.731Z,946.8
2017-03-11T05:02:16.759Z,946.8
2017-03-11T05:03:24.793Z,946.8
2017-03-11T05:04:32.877Z,946.8
2017-03-11T05:05:41.016Z,946.8
2017-03-11T05:06:49.051Z,946.8
2017-03-11T05:07:57.136Z,946.8
2017-03-11T05:09:05.227Z,946.8
2017-03-11T05:10:13.317Z,946.8
2017-03-11T05:11:21.940Z,946.8
2017-03-11T05:12:29.504Z,946.8
2017-03-11T05:13:37.578Z,946.8
2017-03-11T05:14:45.671Z,946.8
2017-03-11T05:15:53.815Z,946.8
2017-03-11T05:17:01.928Z,946.8
2017-03-11T05:18:10.428Z,946.9
2017-03-11T05:19:18.011Z,946.9
2017-03-11T05:20:26.100Z,946.9
2017-03-11T05:21:34.192Z,946.9
2017-03-11T05:22:42.373Z,947.0
2017-03-11T05:23:50.371Z,946.9
2017-03-11T05:24:58.454Z,946.9
2017-03-11T05:26:06.550Z,946.9
2017-03-11T05:27:14.736Z,946.9
2017-03-11T05:28:23.221Z,946.8
2017-03-11T05:29:30.810Z,946.8
2017-03-11T05:30:38.903Z,946.8
2017-03-11T05:31:46.987Z,946.8
2017-03-11T05:32:55.088Z,946.8
2017-03-11T05:34:03.232Z,946.7
2017-03-11T05:35:11.247Z,946.7
2017-03-11T05:36:19.334Z,946.7
2017-03-11T05:37:27.420Z,946.7
2017-03-11T05:38:35.704Z,946.7
2017-03-11T05:39:44.102Z,946.7
2017-03-11T05:40:51.680Z,946.7
2017-03-11T05:41:59.771Z,946.7
2017-03-11T05:43:07.855Z,946.7
2017-03-11T05:44:15.946Z,946.7
2017-03-11T05:45:24.080Z,946.6
2017-03-11T05:46:32.118Z,946.7
2017-03-11T05:47:40.205Z,946.6
2017-03-11T05:48:48.453Z,946.6
2017-03-11T05:49:56.883Z,946.6
2017-03-11T05:51:04.519Z,946.6
2017-03-11T05:52:12.545Z,946.6
2017-03-11T05:53:20.632Z,946.6
2017-03-11T05:54:28.725Z,946.6
2017-03-11T05:55:36.817Z,946.6
2017-03-11T05:56:45.401Z,946.6
2017-03-11T05:57:52.994Z,946.6
2017-03-11T05:59:01.696Z,946.6
2017-03-11T06:00:09.305Z,946.5
2017-03-11T06:01:17.253Z,946.5
2017-03-11T06:02:25.841Z,946.5
2017-03-11T06:03:33.424Z,946.5
2017-03-11T06:04:41.506Z,946.6
2017-03-11T06:05:49.654Z,946.6
2017-03-11T06:06:57.683Z,946.6
2017-03-11T06:08:05.823Z,946.6
2017-03-11T06:09:13.860Z,946.7
2017-03-11T06:10:22.053Z,946.7
2017-03-11T06:11:30.128Z,946.7
2017-03-11T06:12:38.113Z,946.7
2017-03-11T06:13:46.710Z,946.6
2017-03-11T06:14:54.291Z,946.6
2017-03-11T06:16:02.376Z,946.6
2017-03-11T06:17:10.467Z,946.6
2017-03-11T06:18:18.554Z,946.6
2017-03-11T06:19:26.695Z,946.6
2017-03-11T06:20:34.722Z,946.6
2017-03-11T06:21:44.322Z,946.6
2017-03-11T06:22:50.907Z,946.6
2017-03-11T06:23:58.987Z,946.6
2017-03-11T06:25:07.133Z,946.6
2017-03-11T06:26:15.283Z,946.6
2017-03-11T06:27:23.243Z,946.6
2017-03-11T06:28:31.329Z,946.6
2017-03-11T06:29:39.435Z,946.6
2017-03-11T06:30:48.025Z,946.6
2017-03-11T06:31:55.605Z,946.6
2017-03-11T06:33:03.690Z,946.6
2017-03-11T06:34:11.775Z,946.7
2017-03-11T06:35:19.861Z,946.7
2017-03-11T06:36:28.445Z,946.7
2017-03-11T06:37:36.544Z,946.7
2017-03-11T06:38:44.109Z,946.7
2017-03-11T06:39:52.196Z,946.7
2017-03-11T06:41:00.377Z,946.7
2017-03-11T06:42:09.066Z,946.7
2017-03-11T06:43:16.461Z,946.7
2017-03-11T06:44:24.950Z,946.7
2017-03-11T06:45:32.744Z,946.6
2017-03-11T06:46:40.727Z,946.6
2017-03-11T06:47:48.867Z,946.7
2017-03-11T06:48:56.899Z,946.7
2017-03-11T06:50:05.030Z,946.7
2017-03-11T06:51:13.067Z,946.7
2017-03-11T06:52:21.335Z,946.7
2017-03-11T06:53:29.747Z,946.7
2017-03-11T06:54:37.325Z,946.7
2017-03-11T06:55:45.407Z,946.7
2017-03-11T06:56:53.775Z,946.7
2017-03-11T06:58:01.623Z,946.7
2017-03-11T06:59:09.826Z,946.6
2017-03-11T07:00:17.760Z,946.6
2017-03-11T07:01:25.849Z,946.6
2017-03-11T07:02:33.935Z,946.6
2017-03-11T07:03:42.158Z,946.6
2017-03-11T07:04:50.616Z,946.6
2017-03-11T07:05:58.200Z,946.7
2017-03-11T07:07:06.292Z,946.6
2017-03-11T07:08:14.378Z,946.6
2017-03-11T07:09:22.518Z,946.6
2017-03-11T07:10:31.054Z,946.6
2017-03-11T07:11:38.632Z,946.6
2017-03-11T07:12:46.726Z,946.6
2017-03-11T07:13:54.864Z,946.6
2017-03-11T07:15:03.027Z,946.6
2017-03-11T07:16:11.046Z,946.6
2017-03-11T07:17:19.077Z,946.6
2017-03-11T07:18:27.751Z,946.6
2017-03-11T07:19:35.352Z,946.6
2017-03-11T07:26:23.763Z,946.6
2017-03-11T07:27:32.442Z,946.6
2017-03-11T07:28:39.939Z,946.6
2017-03-11T07:29:48.024Z,946.6
2017-03-11T07:30:56.169Z,946.6
2017-03-11T07:32:04.344Z,946.6
2017-03-11T07:33:12.289Z,946.6
2017-03-11T07:34:20.377Z,946.6
2017-03-11T07:35:28.457Z,946.6
2017-03-11T07:36:37.053Z,946.5
2017-03-11T07:37:44.679Z,946.5
2017-03-11T07:38:52.715Z,946.4
2017-03-11T07:40:00.804Z,946.4
2017-03-11T07:41:08.947Z,946.4
2017-03-11T07:42:17.210Z,946.5
2017-03-11T07:43:25.228Z,946.5
2017-03-11T07:44:33.159Z,946.4
2017-03-11T07:45:41.232Z,946.5
2017-03-11T07:46:49.319Z,946.4
2017-03-11T07:47:57.467Z,946.5
2017-03-11T07:49:05.552Z,946.5
2017-03-11T07:50:13.615Z,946.5
2017-03-11T07:51:21.671Z,946.5
2017-03-11T07:52:29.757Z,946.5
2017-03-11T07:53:38.539Z,946.5
2017-03-11T07:54:45.925Z,946.5
2017-03-11T07:55:54.016Z,946.5
2017-03-11T07:57:02.162Z,946.5
2017-03-11T07:58:10.192Z,946.5
2017-03-11T07:59:18.329Z,946.5
2017-03-11T08:00:26.364Z,946.5
2017-03-11T08:01:34.446Z,946.5
2017-03-11T08:02:42.536Z,946.5
2017-03-11T08:03:50.801Z,946.5
2017-03-11T08:04:59.269Z,946.5
2017-03-11T08:06:06.797Z,946.4
2017-03-11T08:07:14.882Z,946.5
2017-03-11T08:08:22.980Z,946.4
2017-03-11T08:08:22.992Z,946.4
2017-03-11T08:09:31.088Z,946.4
2017-03-11T08:10:39.203Z,946.4
2017-03-11T08:11:47.236Z,946.4
2017-03-11T08:12:55.821Z,946.4
2017-03-11T08:14:03.401Z,946.4
2017-03-11T08:15:11.583Z,946.5
2017-03-11T08:16:19.636Z,946.5
2017-03-11T08:17:27.663Z,946.5
2017-03-11T08:18:35.745Z,946.5
2017-03-11T08:19:43.833Z,946.5
2017-03-11T08:20:51.923Z,946.4
2017-03-11T08:22:00.513Z,946.5
2017-03-11T08:23:08.092Z,946.4
2017-03-11T08:24:16.186Z,946.5
2017-03-11T08:25:24.368Z,946.4
2017-03-11T08:26:32.445Z,946.5
2017-03-11T08:27:40.502Z,946.4
2017-03-11T08:28:49.037Z,946.4
2017-03-11T08:29:56.654Z,946.4
2017-03-11T08:31:04.712Z,946.4
2017-03-11T08:32:12.802Z,946.4
2017-03-11T08:33:20.950Z,946.3
2017-03-11T08:34:28.985Z,946.3
2017-03-11T08:35:37.072Z,946.3
2017-03-11T08:36:45.199Z,946.3
2017-03-11T08:37:53.242Z,946.2
2017-03-11T08:39:01.840Z,946.2
2017-03-11T08:40:09.421Z,946.2
2017-03-11T08:41:17.708Z,946.2
2017-03-11T08:42:25.697Z,946.1
2017-03-11T08:43:33.685Z,946.1
2017-03-11T08:44:41.831Z,946.1
2017-03-11T08:45:49.859Z,946.0
2017-03-11T08:46:57.944Z,946.0
2017-03-11T08:48:06.081Z,946.0
2017-03-11T08:49:14.113Z,946.0
2017-03-11T08:50:22.708Z,946.0
2017-03-11T08:51:30.292Z,946.0
2017-03-11T08:52:38.376Z,946.0
2017-03-11T08:53:46.459Z,946.0
2017-03-11T08:54:54.561Z,946.0
2017-03-11T08:56:02.704Z,946.0
2017-03-11T08:57:10.729Z,946.0
2017-03-11T08:58:19.502Z,946.0
2017-03-11T08:59:26.908Z,946.0
2017-03-11T09:00:35.499Z,946.0
2017-03-11T09:01:43.137Z,946.0
2017-03-11T09:02:51.362Z,946.0
2017-03-11T09:03:59.442Z,946.0
2017-03-11T09:05:07.341Z,946.0
2017-03-11T09:06:15.428Z,946.0
2017-03-11T09:07:24.034Z,946.0
2017-03-11T09:08:31.620Z,946.0
2017-03-11T09:09:39.744Z,946.0
2017-03-11T09:10:47.793Z,946.0
2017-03-11T09:11:55.880Z,946.0
2017-03-11T09:13:04.018Z,946.0
2017-03-11T09:14:12.213Z,945.9
2017-03-11T09:15:20.137Z,945.9
2017-03-11T09:16:31.729Z,946.0
2017-03-11T09:17:36.305Z,945.9
2017-03-11T09:18:44.456Z,945.9
2017-03-11T09:19:52.501Z,945.9
2017-03-11T09:21:00.573Z,945.9
2017-03-11T09:22:08.656Z,945.9
2017-03-11T09:23:16.746Z,945.9
2017-03-11T09:24:25.377Z,945.9
2017-03-11T09:25:33.035Z,945.9
2017-03-11T09:26:41.008Z,945.9
2017-03-11T09:27:49.096Z,945.9
2017-03-11T09:28:57.177Z,945.9
2017-03-11T09:30:05.320Z,945.9
2017-03-11T09:31:13.350Z,945.8
2017-03-11T09:32:21.945Z,945.9
2017-03-11T09:33:29.521Z,945.8
2017-03-11T09:34:37.614Z,945.7
2017-03-11T09:35:45.824Z,945.7
2017-03-11T09:36:53.782Z,945.7
2017-03-11T09:38:01.873Z,945.7
2017-03-11T09:39:09.959Z,945.8
2017-03-11T09:40:18.237Z,945.8
2017-03-11T09:41:26.636Z,945.8
2017-03-11T09:42:34.233Z,945.8
2017-03-11T09:43:42.308Z,945.8
2017-03-11T09:44:50.397Z,945.8
2017-03-11T09:45:58.489Z,945.8
2017-03-11T09:47:07.084Z,945.8
2017-03-11T09:48:14.716Z,945.8
2017-03-11T09:49:22.749Z,945.8
2017-03-11T09:50:30.845Z,945.8
2017-03-11T09:51:39.065Z,945.8
2017-03-11T09:52:47.079Z,945.8
2017-03-11T09:53:55.103Z,945.7
2017-03-11T09:55:03.197Z,945.8
2017-03-11T09:56:11.280Z,945.7
2017-03-11T09:57:19.374Z,945.7
2017-03-11T09:58:27.955Z,945.7
2017-03-11T09:59:35.537Z,945.7
2017-03-11T10:00:43.626Z,945.6
2017-03-11T10:01:51.766Z,945.6
2017-03-11T10:02:59.814Z,945.6
2017-03-11T10:04:08.402Z,945.5
2017-03-11T10:05:15.981Z,945.5
2017-03-11T10:06:24.069Z,945.5
2017-03-11T10:07:32.158Z,945.5
2017-03-11T10:08:40.255Z,945.5
2017-03-11T10:09:48.387Z,945.5
2017-03-11T10:10:56.615Z,945.5
2017-03-11T10:12:04.509Z,945.5
2017-03-11T10:13:12.759Z,945.5
2017-03-11T10:14:20.685Z,945.5
2017-03-11T10:15:29.277Z,945.5
2017-03-11T10:16:36.857Z,945.5
2017-03-11T10:17:44.948Z,945.6
2017-03-11T10:18:53.038Z,945.6
2017-03-11T10:20:01.180Z,945.5
2017-03-11T10:21:09.715Z,945.5
2017-03-11T10:22:17.296Z,945.5
2017-03-11T10:23:25.517Z,945.5
2017-03-11T10:24:33.591Z,945.5
2017-03-11T10:25:41.555Z,945.5
2017-03-11T10:26:49.703Z,945.5
2017-03-11T10:27:57.732Z,945.5
2017-03-11T10:29:05.820Z,945.5
2017-03-11T10:30:14.001Z,945.6
2017-03-11T10:31:22.002Z,945.5
2017-03-11T10:32:30.591Z,945.5
2017-03-11T10:33:38.179Z,945.5
2017-03-11T10:34:46.315Z,945.5
2017-03-11T10:35:54.673Z,945.4
2017-03-11T10:37:02.521Z,945.5
2017-03-11T10:38:11.106Z,945.4
2017-03-11T10:39:18.697Z,945.4
2017-03-11T10:40:26.709Z,945.4
2017-03-11T10:41:34.874Z,945.4
2017-03-11T10:42:42.879Z,945.4
2017-03-11T10:43:51.021Z,945.4
2017-03-11T10:44:59.107Z,945.4
2017-03-11T10:46:07.255Z,945.4
2017-03-11T10:47:16.308Z,945.4
2017-03-11T10:48:23.308Z,945.4
2017-03-11T10:49:32.070Z,945.4
2017-03-11T10:50:39.666Z,945.4
2017-03-11T10:51:47.628Z,945.3
2017-03-11T10:52:55.666Z,945.4
2017-03-11T10:54:03.763Z,945.32
2017-03-11T10:55:11.898Z,945.3
2017-03-11T10:56:19.928Z,945.3
2017-03-11T10:57:28.014Z,945.3
2017-03-11T10:58:36.187Z,945.3
2017-03-11T10:59:44.271Z,945.3
2017-03-11T11:00:52.960Z,945.2
2017-03-11T11:02:00.362Z,945.2
2017-03-11T11:03:08.522Z,945.2
2017-03-11T11:04:16.618Z,945.2
2017-03-11T11:05:24.703Z,945.2
2017-03-11T11:06:32.762Z,945.2
2017-03-11T11:07:44.374Z,945.2
2017-03-11T11:08:48.878Z,945.2
2017-03-11T11:09:56.965Z,945.1
2017-03-11T11:11:05.161Z,945.1
2017-03-11T11:12:13.489Z,945.2
2017-03-11T11:13:21.224Z,945.1
2017-03-11T11:14:29.311Z,945.1
2017-03-11T11:15:37.400Z,945.0
2017-03-11T11:16:45.495Z,945.0
2017-03-11T11:17:54.089Z,945.0
2017-03-11T11:19:01.672Z,945.0
2017-03-11T11:20:09.754Z,945.0
2017-03-11T11:21:17.851Z,944.9
2017-03-11T11:22:25.935Z,944.9
2017-03-11T11:23:34.074Z,944.9
2017-03-11T11:24:42.111Z,944.9
2017-03-11T11:25:50.274Z,944.9
2017-03-11T11:26:58.282Z,944.8
2017-03-11T11:28:06.375Z,944.8
2017-03-11T11:29:14.514Z,944.8
2017-03-11T11:30:22.649Z,944.8
2017-03-11T11:31:30.662Z,944.7
2017-03-11T11:32:38.744Z,944.7
2017-03-11T11:33:46.901Z,944.7
2017-03-11T11:34:55.492Z,944.7
2017-03-11T11:36:03.122Z,944.7
2017-03-11T11:37:11.081Z,944.7
2017-03-11T11:38:19.349Z,944.6
2017-03-11T11:39:27.588Z,944.6
2017-03-11T11:40:35.854Z,944.6
2017-03-11T11:41:43.535Z,944.6
2017-03-11T11:42:51.531Z,944.6
2017-03-11T11:43:59.689Z,944.6
2017-03-11T11:45:07.709Z,944.7
2017-03-11T11:46:15.852Z,944.7
2017-03-11T11:47:23.882Z,944.6
2017-03-11T11:48:32.125Z,944.6
2017-03-11T11:49:40.204Z,944.7
2017-03-11T11:50:48.147Z,944.7
2017-03-11T11:51:56.291Z,944.7
2017-03-11T11:53:04.331Z,944.6
2017-03-11T11:54:12.706Z,944.7
2017-03-11T11:55:20.650Z,944.6
2017-03-11T11:56:28.602Z,944.7
2017-03-11T11:57:37.184Z,944.6
2017-03-11T11:58:44.763Z,944.6
2017-03-11T11:59:52.907Z,944.6
2017-03-11T12:01:00.939Z,944.6
2017-03-11T12:02:09.019Z,944.5
2017-03-11T12:03:17.611Z,944.5
2017-03-11T12:04:25.197Z,944.5
2017-03-11T12:05:33.321Z,944.5
2017-03-11T12:06:41.368Z,944.5
2017-03-11T12:07:49.488Z,944.4
2017-03-11T12:08:57.667Z,944.4
2017-03-11T12:10:05.766Z,944.4
2017-03-11T12:11:14.352Z,944.4
2017-03-11T12:12:21.825Z,944.5
2017-03-11T12:13:30.046Z,944.4
2017-03-11T12:14:38.050Z,944.4
2017-03-11T12:15:46.087Z,944.4
2017-03-11T12:16:54.172Z,944.4
2017-03-11T12:18:02.267Z,944.4
2017-03-11T12:19:10.384Z,944.4
2017-03-11T12:20:18.942Z,944.3
2017-03-11T12:21:26.580Z,944.3
2017-03-11T12:22:34.610Z,944.3
2017-03-11T12:23:42.757Z,944.3
2017-03-11T12:24:50.817Z,944.2
2017-03-11T12:25:59.094Z,944.2
2017-03-11T12:27:07.460Z,944.2
2017-03-11T12:28:15.042Z,944.2
2017-03-11T12:29:23.126Z,944.1
2017-03-11T12:30:31.211Z,944.1
2017-03-11T12:31:39.421Z,944.1
2017-03-11T12:32:47.446Z,944.1
2017-03-11T12:33:55.469Z,944.1
2017-03-11T12:35:03.626Z,944.1
2017-03-11T12:36:11.648Z,944.1
2017-03-11T12:37:20.233Z,944.1
2017-03-11T12:38:27.818Z,944.1
2017-03-11T12:39:35.916Z,944.1
2017-03-11T12:40:44.004Z,944.1
2017-03-11T12:41:52.116Z,944.0
2017-03-11T12:43:00.384Z,944.0
2017-03-11T12:44:08.284Z,944.0
2017-03-11T12:45:16.362Z,944.0
2017-03-11T12:46:24.445Z,944.0
2017-03-11T12:47:32.554Z,943.9
2017-03-11T12:48:41.129Z,943.9
2017-03-11T12:49:48.731Z,943.9
2017-03-11T12:50:56.826Z,943.9
2017-03-11T12:52:04.907Z,943.8
2017-03-11T12:53:12.978Z,943.8
2017-03-11T12:54:21.120Z,943.7
2017-03-11T12:55:29.157Z,943.8
2017-03-11T12:56:37.244Z,943.7
2017-03-11T12:57:45.331Z,943.6
2017-03-11T12:58:54.116Z,943.6
2017-03-11T13:00:01.658Z,943.6
2017-03-11T13:01:09.606Z,943.6
2017-03-11T13:02:17.672Z,943.6
2017-03-11T13:03:25.759Z,943.6
2017-03-11T13:04:33.845Z,943.5
2017-03-11T13:05:41.983Z,943.5
2017-03-11T13:06:50.058Z,943.5
2017-03-11T13:07:58.107Z,943.5
2017-03-11T13:09:06.372Z,943.5
2017-03-11T13:10:14.458Z,943.5
2017-03-11T13:11:22.892Z,943.4
2017-03-11T13:12:30.472Z,943.4
2017-03-11T13:13:38.542Z,943.4
2017-03-11T13:14:46.695Z,943.3
2017-03-11T13:15:54.723Z,943.3
2017-03-11T13:17:03.351Z,943.3
2017-03-11T13:18:10.893Z,943.3
2017-03-11T13:19:19.009Z,943.3
2017-03-11T13:20:27.247Z,943.3
2017-03-11T13:21:35.163Z,943.3
2017-03-11T13:22:43.776Z,943.3
2017-03-11T13:23:51.333Z,943.3
2017-03-11T13:24:59.474Z,943.2
2017-03-11T13:26:07.554Z,943.2
2017-03-11T13:27:15.635Z,943.2
2017-03-11T13:28:24.056Z,943.2
2017-03-11T13:29:31.923Z,943.2
2017-03-11T13:30:40.704Z,943.2
2017-03-11T13:31:48.084Z,943.2
2017-03-11T13:32:56.050Z,943.2
2017-03-11T13:34:04.176Z,943.2
2017-03-11T13:35:12.229Z,943.2
2017-03-11T13:36:20.358Z,943.2
2017-03-11T13:37:28.383Z,943.2
2017-03-11T13:38:36.488Z,943.2
2017-03-11T13:39:45.137Z,943.2
2017-03-11T13:40:52.642Z,943.2
2017-03-11T13:42:00.794Z,943.2
2017-03-11T13:43:08.823Z,943.2
2017-03-11T13:44:16.957Z,943.2
2017-03-11T13:45:25.150Z,943.1
2017-03-11T13:46:33.584Z,943.1
2017-03-11T13:47:41.205Z,943.2
2017-03-11T13:48:49.254Z,943.1
2017-03-11T13:49:57.348Z,943.1
2017-03-11T13:51:05.485Z,943.1
2017-03-11T13:52:13.656Z,943.1
2017-03-11T13:53:21.718Z,943.1
2017-03-11T13:54:29.695Z,943.0
2017-03-11T13:55:37.782Z,943.1
2017-03-11T13:56:46.548Z,943.0
2017-03-11T13:57:53.955Z,943.0
2017-03-11T13:59:02.038Z,943.0
2017-03-11T14:00:10.123Z,943.0
2017-03-11T14:01:18.217Z,943.0
2017-03-11T14:02:26.822Z,943.0
2017-03-11T14:03:34.509Z,943.0
2017-03-11T14:04:42.483Z,943.0
2017-03-11T14:05:50.580Z,942.9
2017-03-11T14:06:58.670Z,943.0
2017-03-11T14:08:06.810Z,943.0
2017-03-11T14:09:14.840Z,942.9
2017-03-11T14:10:22.931Z,942.9
2017-03-11T14:11:31.014Z,942.9
2017-03-11T14:12:39.097Z,942.9
2017-03-11T14:13:47.787Z,942.9
2017-03-11T14:14:55.372Z,942.9
2017-03-11T14:16:03.352Z,942.9
2017-03-11T14:17:11.442Z,942.9
2017-03-11T14:18:19.590Z,942.9
2017-03-11T14:19:28.125Z,942.9
2017-03-11T14:20:35.700Z,942.9
2017-03-11T14:21:43.792Z,942.9
2017-03-11T14:22:51.876Z,942.9
2017-03-11T14:23:59.964Z,942.9
2017-03-11T14:25:08.657Z,942.9
2017-03-11T14:26:16.135Z,942.9
2017-03-11T14:27:24.224Z,942.9
2017-03-11T14:28:32.316Z,942.9
2017-03-11T14:29:40.407Z,942.9
2017-03-11T14:30:49.044Z,942.9
2017-03-11T14:31:56.578Z,942.9
2017-03-11T14:33:04.666Z,942.9
2017-03-11T14:34:12.815Z,942.9
2017-03-11T14:35:20.843Z,942.9
2017-03-11T14:36:28.984Z,942.8
2017-03-11T14:37:37.019Z,942.9
2017-03-11T14:38:45.103Z,942.8
2017-03-11T14:39:53.186Z,942.8
2017-03-11T14:41:01.272Z,942.8